createdAt,value
2023-02-17T00:00:54.360Z,37.67
2023-02-17T00:03:56.863Z,38.88
2023-02-17T00:06:59.036Z,36.65
2023-02-17T00:10:00.962Z,37.60
2023-02-17T00:13:02.692Z,36.95
2023-02-17T00:16:10.041Z,35.17
2023-02-17T00:19:25.241Z,36.20
2023-02-17T00:22:27.180Z,35.85
2023-02-17T00:25:28.842Z,38.25
2023-02-17T00:28:30.509Z,37.80
2023-02-17T00:31:32.387Z,37.00
2023-02-17T00:34:34.099Z,36.58
2023-02-17T00:37:35.928Z,36.13
2023-02-17T00:40:38.956Z,36.28
2023-02-17T00:43:40.670Z,36.10
2023-02-17T00:46:42.374Z,37.17
2023-02-17T00:49:44.133Z,36.80
2023-02-17T00:52:45.785Z,35.88
2023-02-17T00:55:47.493Z,39.60
2023-02-17T00:58:49.183Z,37.95
2023-02-17T01:01:50.959Z,37.08
2023-02-17T01:04:53.668Z,38.40
2023-02-17T01:07:55.913Z,38.65
2023-02-17T01:10:57.566Z,39.28
2023-02-17T01:14:00.915Z,39.15
2023-02-17T01:17:03.061Z,40.05
2023-02-17T01:20:05.500Z,37.85
2023-02-17T01:23:08.971Z,37.90
2023-02-17T01:26:15.845Z,39.78
2023-02-17T01:29:17.507Z,40.47
2023-02-17T01:32:19.178Z,38.70
2023-02-17T01:35:20.954Z,37.25
2023-02-17T01:38:22.639Z,40.75
2023-02-17T01:41:27.175Z,38.63
2023-02-17T01:44:32.772Z,38.60
2023-02-17T01:47:34.537Z,40.72
2023-02-17T01:50:42.984Z,40.38
2023-02-17T01:53:55.897Z,37.75
2023-02-17T01:57:01.186Z,39.22
2023-02-17T02:00:04.329Z,39.78
2023-02-17T02:03:09.451Z,38.72
2023-02-17T02:06:16.553Z,39.28
2023-02-17T02:09:38.600Z,39.50
2023-02-17T02:12:41.902Z,39.22
2023-02-17T02:16:01.195Z,39.30
2023-02-17T02:19:27.682Z,39.72
2023-02-17T02:22:38.340Z,38.88
2023-02-17T02:26:08.000Z,40.92
2023-02-17T02:29:47.374Z,41.00
2023-02-17T02:32:56.973Z,41.42
2023-02-17T02:36:05.129Z,41.33
2023-02-17T02:39:27.693Z,41.40
2023-02-17T02:42:30.317Z,38.72
2023-02-17T02:45:32.462Z,40.03
2023-02-17T02:48:34.972Z,41.25
2023-02-17T02:52:08.189Z,41.13
2023-02-17T02:55:18.434Z,40.47
2023-02-17T02:58:27.665Z,40.95
2023-02-17T03:02:04.239Z,42.38
2023-02-17T03:05:43.691Z,38.85
2023-02-17T03:08:55.686Z,40.08
2023-02-17T03:11:58.803Z,40.30
2023-02-17T03:15:05.026Z,40.72
2023-02-17T03:18:06.809Z,38.15
2023-02-17T03:21:16.361Z,39.05
2023-02-17T03:24:18.738Z,40.15
2023-02-17T03:27:20.414Z,39.58
2023-02-17T03:30:22.205Z,40.15
2023-02-17T03:33:23.930Z,39.88
2023-02-17T03:36:25.917Z,40.90
2023-02-17T03:39:27.773Z,41.95
2023-02-17T03:42:29.419Z,40.08
2023-02-17T03:45:31.243Z,41.47
2023-02-17T03:48:32.924Z,41.40
2023-02-17T03:51:34.546Z,40.90
2023-02-17T03:54:38.097Z,41.20
2023-02-17T03:57:39.794Z,40.45
2023-02-17T04:00:41.454Z,41.13
2023-02-17T04:03:43.337Z,40.20
2023-02-17T04:06:45.051Z,40.22
2023-02-17T04:09:46.697Z,41.75
2023-02-17T04:12:48.350Z,40.15
2023-02-17T04:15:50.161Z,42.30
2023-02-17T04:18:51.837Z,41.37
2023-02-17T04:21:53.588Z,38.92
2023-02-17T04:24:55.334Z,40.12
2023-02-17T04:27:56.955Z,38.83
2023-02-17T04:30:59.813Z,38.15
2023-02-17T04:34:01.555Z,41.40
2023-02-17T04:37:03.306Z,37.50
2023-02-17T04:40:10.451Z,38.22
2023-02-17T04:43:12.462Z,36.90
2023-02-17T04:46:14.202Z,39.58
2023-02-17T04:49:15.929Z,40.58
2023-02-17T04:52:17.572Z,38.35
2023-02-17T04:55:19.367Z,39.88
2023-02-17T04:58:21.702Z,40.38
2023-02-17T05:01:23.457Z,42.17
2023-02-17T05:04:25.191Z,38.95
2023-02-17T05:07:26.992Z,40.65
2023-02-17T05:10:28.683Z,38.38
2023-02-17T05:13:30.311Z,42.88
2023-02-17T05:16:31.996Z,42.60
2023-02-17T05:19:33.751Z,41.25
2023-02-17T05:22:35.386Z,40.53
2023-02-17T05:25:37.120Z,41.40
2023-02-17T05:28:38.904Z,38.88
2023-02-17T05:31:40.831Z,42.62
2023-02-17T05:34:42.557Z,40.20
2023-02-17T05:37:44.189Z,39.67
2023-02-17T05:40:45.874Z,36.97
2023-02-17T05:43:48.341Z,37.60
2023-02-17T05:46:50.134Z,38.08
2023-02-17T05:49:51.849Z,37.92
2023-02-17T05:52:53.539Z,37.72
2023-02-17T05:55:55.247Z,40.15
2023-02-17T05:58:56.896Z,39.53
2023-02-17T06:01:58.551Z,37.55
2023-02-17T06:05:00.303Z,38.75
2023-02-17T06:08:02.017Z,38.03
2023-02-17T06:11:04.096Z,38.53
2023-02-17T06:14:05.784Z,38.55
2023-02-17T06:17:10.468Z,41.75
2023-02-17T06:20:12.946Z,39.38
2023-02-17T06:23:14.598Z,39.55
2023-02-17T06:26:17.480Z,40.63
2023-02-17T06:29:19.156Z,39.80
2023-02-17T06:32:20.781Z,41.50
2023-02-17T06:35:22.568Z,38.17
2023-02-17T06:38:24.264Z,40.83
2023-02-17T06:41:25.999Z,45.15
2023-02-17T06:44:27.744Z,41.08
2023-02-17T06:47:29.439Z,39.15
2023-02-17T06:50:31.158Z,40.83
2023-02-17T06:53:32.843Z,40.25
2023-02-17T06:56:34.624Z,38.08
2023-02-17T06:59:36.265Z,38.92
2023-02-17T07:02:39.425Z,37.85
2023-02-17T07:05:41.153Z,39.70
2023-02-17T07:08:42.898Z,39.08
2023-02-17T07:11:45.307Z,38.85
2023-02-17T07:14:46.960Z,41.42
2023-02-17T07:17:48.634Z,50.35
2023-02-17T07:20:50.345Z,43.87
2023-02-17T07:23:52.009Z,45.72
2023-02-17T07:26:56.194Z,39.10
2023-02-17T07:29:58.330Z,37.22
2023-02-17T07:32:59.971Z,36.50
2023-02-17T07:36:09.140Z,39.25
2023-02-17T07:39:10.833Z,36.17
2023-02-17T07:42:12.709Z,37.90
2023-02-17T07:45:14.423Z,38.35
2023-02-17T07:48:16.104Z,37.85
2023-02-17T07:51:22.291Z,37.88
2023-02-17T07:54:23.929Z,38.53
2023-02-17T07:57:25.728Z,38.53
2023-02-17T08:00:27.363Z,35.88
2023-02-17T08:03:29.088Z,39.58
2023-02-17T08:06:31.389Z,37.65
2023-02-17T08:09:51.783Z,35.25
2023-02-17T08:13:11.955Z,36.20
2023-02-17T08:16:13.619Z,33.95
2023-02-17T08:19:15.330Z,35.20
2023-02-17T08:22:17.745Z,34.53
2023-02-17T08:25:19.482Z,33.15
2023-02-17T08:28:21.690Z,33.60
2023-02-17T08:31:29.217Z,36.55
2023-02-17T08:37:35.532Z,33.72
2023-02-17T08:40:37.615Z,33.53
2023-02-17T08:43:39.341Z,32.03
2023-02-17T08:46:42.178Z,32.00
2023-02-17T08:49:44.219Z,31.85
2023-02-17T08:52:47.161Z,35.80
2023-02-17T08:55:49.869Z,32.78
2023-02-17T08:58:52.224Z,30.75
2023-02-17T09:01:54.437Z,31.92
2023-02-17T09:04:56.234Z,31.55
2023-02-17T09:07:57.930Z,40.67
2023-02-17T09:11:00.146Z,33.45
2023-02-17T09:14:02.622Z,34.22
2023-02-17T09:17:05.418Z,30.17
2023-02-17T09:20:19.454Z,31.77
2023-02-17T09:23:26.844Z,31.67
2023-02-17T09:26:28.643Z,30.92
2023-02-17T09:29:30.391Z,30.23
2023-02-17T09:32:32.084Z,28.83
2023-02-17T09:35:33.901Z,29.35
2023-02-17T09:38:37.859Z,26.90
2023-02-17T09:41:39.646Z,27.90
2023-02-17T09:44:47.457Z,27.37
2023-02-17T09:48:00.035Z,25.80
2023-02-17T09:51:16.074Z,33.75
2023-02-17T09:54:26.893Z,26.73
2023-02-17T09:57:31.149Z,26.73
2023-02-17T10:00:45.474Z,26.52
2023-02-17T10:03:53.978Z,27.87
2023-02-17T10:07:15.150Z,27.80
2023-02-17T10:10:23.390Z,26.60
2023-02-17T10:13:29.659Z,26.33
2023-02-17T10:16:48.440Z,27.37
2023-02-17T10:20:19.815Z,27.55
2023-02-17T10:23:28.569Z,25.73
2023-02-17T10:27:00.642Z,23.05
2023-02-17T10:30:08.292Z,21.98
2023-02-17T10:33:17.178Z,22.80
2023-02-17T10:36:44.476Z,22.17
2023-02-17T10:39:51.866Z,24.50
2023-02-17T10:43:07.715Z,21.37
2023-02-17T10:46:09.930Z,19.42
2023-02-17T10:49:33.365Z,19.00
2023-02-17T10:52:40.052Z,20.70
2023-02-17T10:55:48.803Z,19.80
2023-02-17T10:59:04.606Z,17.45
2023-02-17T11:02:19.724Z,16.77
2023-02-17T11:05:33.712Z,17.92
2023-02-17T11:08:39.577Z,17.17
2023-02-17T11:12:00.374Z,17.20
2023-02-17T11:15:04.842Z,17.80
2023-02-17T11:18:18.427Z,17.52
2023-02-17T11:21:20.520Z,19.87
2023-02-17T11:24:23.030Z,21.10
2023-02-17T11:27:26.433Z,21.45
2023-02-17T11:30:31.777Z,20.02
2023-02-17T11:33:39.321Z,21.15
2023-02-17T11:39:48.219Z,19.12
2023-02-17T11:42:56.717Z,20.23
2023-02-17T11:46:01.203Z,19.70
2023-02-17T11:49:33.799Z,20.67
2023-02-17T11:52:44.444Z,20.92
2023-02-17T11:56:07.923Z,21.12
2023-02-17T11:59:37.200Z,21.62
2023-02-17T12:03:09.891Z,24.52
2023-02-17T12:06:31.424Z,24.15
2023-02-17T12:09:58.267Z,23.55
2023-02-17T12:13:47.748Z,25.02
2023-02-17T12:17:00.529Z,23.12
2023-02-17T12:20:47.501Z,23.80
2023-02-17T12:23:54.839Z,23.67
2023-02-17T12:27:04.373Z,24.10
2023-02-17T12:30:28.480Z,23.48
2023-02-17T12:33:42.391Z,23.80
2023-02-17T12:36:44.269Z,24.10
2023-02-17T12:39:53.750Z,23.90
2023-02-17T12:43:01.127Z,22.40
2023-02-17T12:46:10.959Z,23.17
2023-02-17T12:49:14.247Z,21.92
2023-02-17T12:52:23.925Z,22.05
2023-02-17T12:55:39.599Z,23.10
2023-02-17T12:58:42.761Z,24.05
2023-02-17T13:02:10.516Z,24.58
2023-02-17T13:05:22.980Z,26.25
2023-02-17T13:08:38.174Z,25.02
2023-02-17T13:11:39.809Z,24.58
2023-02-17T13:14:48.763Z,25.80
2023-02-17T13:18:30.908Z,25.30
2023-02-17T13:21:33.614Z,26.50
2023-02-17T13:24:50.717Z,27.15
2023-02-17T13:27:52.436Z,27.33
2023-02-17T13:30:56.538Z,26.77
2023-02-17T13:33:59.787Z,28.15
2023-02-17T13:37:23.247Z,28.23
2023-02-17T13:40:24.827Z,26.42
2023-02-17T13:43:29.301Z,28.25
2023-02-17T13:46:31.757Z,27.52
2023-02-17T13:49:35.219Z,26.92
2023-02-17T13:52:37.016Z,27.73
2023-02-17T13:55:41.898Z,26.92
2023-02-17T13:58:43.683Z,27.70
2023-02-17T14:01:47.277Z,26.90
2023-02-17T14:04:49.224Z,27.60
2023-02-17T14:07:52.677Z,29.10
2023-02-17T14:10:54.808Z,27.83
2023-02-17T14:13:57.893Z,30.17
2023-02-17T14:17:07.691Z,38.67
2023-02-17T14:20:35.290Z,40.72
2023-02-17T14:23:54.658Z,36.13
2023-02-17T14:27:03.358Z,40.90
2023-02-17T14:30:05.992Z,34.85
2023-02-17T14:33:28.204Z,34.20
2023-02-17T14:36:38.756Z,33.53
2023-02-17T14:39:40.841Z,29.80
2023-02-17T14:42:42.619Z,32.65
2023-02-17T14:45:44.503Z,31.10
2023-02-17T14:48:47.548Z,31.33
2023-02-17T14:51:49.382Z,32.15
2023-02-17T14:54:51.792Z,33.90
2023-02-17T14:57:54.121Z,32.25
2023-02-17T15:00:56.786Z,31.92
2023-02-17T15:03:59.128Z,33.75
2023-02-17T15:07:01.021Z,33.50
2023-02-17T15:10:07.035Z,33.55
2023-02-17T15:13:18.708Z,33.80
2023-02-17T15:16:20.735Z,33.20
2023-02-17T15:19:22.596Z,33.67
2023-02-17T15:22:25.995Z,34.63
2023-02-17T15:25:33.471Z,34.10
2023-02-17T15:28:35.444Z,32.80
2023-02-17T15:31:37.470Z,33.22
2023-02-17T15:34:39.508Z,31.40
2023-02-17T15:37:41.506Z,32.88
2023-02-17T15:40:43.538Z,33.20
2023-02-17T15:43:48.305Z,33.35
2023-02-17T15:46:53.432Z,31.15
2023-02-17T15:49:55.903Z,31.42
2023-02-17T15:52:58.964Z,31.05
2023-02-17T15:56:03.799Z,32.65
2023-02-17T15:59:11.945Z,32.70
2023-02-17T16:02:21.725Z,32.15
2023-02-17T16:05:28.949Z,33.33
2023-02-17T16:08:30.708Z,34.10
2023-02-17T16:11:33.467Z,37.00
2023-02-17T16:14:40.042Z,35.22
2023-02-17T16:17:42.432Z,33.65
2023-02-17T16:20:44.289Z,34.38
2023-02-17T16:23:46.858Z,33.53
2023-02-17T16:26:49.100Z,33.25
2023-02-17T16:29:50.932Z,34.10
2023-02-17T16:32:53.099Z,36.55
2023-02-17T16:35:54.979Z,36.78
2023-02-17T16:38:57.453Z,35.97
2023-02-17T16:41:59.824Z,34.78
2023-02-17T16:45:02.212Z,33.33
2023-02-17T16:48:08.356Z,35.20
2023-02-17T16:51:10.200Z,36.05
2023-02-17T16:54:12.810Z,39.65
2023-02-17T16:57:19.366Z,37.05
2023-02-17T17:00:25.485Z,38.27
2023-02-17T17:03:29.008Z,36.78
2023-02-17T17:06:31.021Z,34.80
2023-02-17T17:09:34.784Z,35.60
2023-02-17T17:12:36.661Z,36.17
2023-02-17T17:15:45.032Z,37.50
2023-02-17T17:18:48.338Z,37.17
2023-02-17T17:21:55.693Z,35.45
2023-02-17T17:24:58.222Z,36.05
2023-02-17T17:28:00.513Z,34.90
2023-02-17T17:31:06.016Z,36.42
2023-02-17T17:34:08.033Z,36.17
2023-02-17T17:37:11.210Z,35.72
2023-02-17T17:40:20.330Z,37.50
2023-02-17T17:43:28.300Z,38.33
2023-02-17T17:46:32.625Z,40.25
2023-02-17T17:49:35.886Z,37.63
2023-02-17T17:52:38.458Z,37.22
2023-02-17T17:55:41.441Z,37.88
2023-02-17T17:58:44.199Z,37.15
2023-02-17T18:01:46.841Z,36.15
2023-02-17T18:04:49.548Z,36.05
2023-02-17T18:07:52.405Z,35.05
2023-02-17T18:10:55.009Z,32.40
2023-02-17T18:14:01.940Z,34.63
2023-02-17T18:17:06.341Z,34.83
2023-02-17T18:20:10.769Z,32.80
2023-02-17T18:23:13.858Z,32.58
2023-02-17T18:26:17.493Z,33.35
2023-02-17T18:29:20.345Z,33.00
2023-02-17T18:32:24.542Z,38.45
2023-02-17T18:35:27.447Z,39.40
2023-02-17T18:38:31.835Z,37.90
2023-02-17T18:41:35.477Z,30.80
2023-02-17T18:44:41.247Z,31.45
2023-02-17T18:47:46.697Z,31.90
2023-02-17T18:50:51.030Z,31.12
2023-02-17T18:53:56.776Z,29.65
2023-02-17T18:56:59.621Z,28.23
2023-02-17T19:00:02.400Z,27.65
2023-02-17T19:03:05.292Z,28.05
2023-02-17T19:06:13.212Z,29.85
2023-02-17T19:09:16.250Z,28.85
2023-02-17T19:12:20.355Z,28.52
2023-02-17T19:15:23.908Z,29.25
2023-02-17T19:18:27.660Z,30.67
2023-02-17T19:21:30.285Z,30.12
2023-02-17T19:24:32.843Z,29.87
2023-02-17T19:27:35.615Z,30.08
2023-02-17T19:30:38.406Z,29.92
2023-02-17T19:33:41.329Z,30.23
2023-02-17T19:36:50.322Z,30.48
2023-02-17T19:39:54.720Z,30.48
2023-02-17T19:42:58.146Z,28.05
2023-02-17T19:46:03.597Z,28.27
2023-02-17T19:49:22.459Z,26.65
2023-02-17T19:52:25.338Z,23.23
2023-02-17T19:55:28.231Z,22.75
2023-02-17T19:58:34.068Z,21.95
2023-02-17T20:01:36.987Z,21.60
2023-02-17T20:04:42.255Z,21.42
2023-02-17T20:07:45.662Z,21.80
2023-02-17T20:10:48.448Z,21.02
2023-02-17T20:14:04.875Z,20.27
2023-02-17T20:17:07.591Z,21.17
2023-02-17T20:20:11.739Z,20.58
2023-02-17T20:23:14.566Z,19.83
2023-02-17T20:26:26.253Z,20.35
2023-02-17T20:29:29.867Z,20.35
2023-02-17T20:32:32.379Z,19.85
2023-02-17T20:35:37.457Z,19.65
2023-02-17T20:38:43.707Z,19.52
2023-02-17T20:41:46.742Z,18.15
2023-02-17T20:44:52.179Z,18.40
2023-02-17T20:47:54.558Z,17.98
2023-02-17T20:51:00.711Z,17.95
2023-02-17T20:54:03.419Z,17.17
2023-02-17T20:57:14.534Z,16.98
2023-02-17T21:00:21.010Z,17.40
2023-02-17T21:03:23.787Z,16.50
2023-02-17T21:06:32.694Z,17.05
2023-02-17T21:09:36.342Z,15.93
2023-02-17T21:12:39.757Z,16.75
2023-02-17T21:15:42.454Z,15.75
2023-02-17T21:18:48.006Z,17.83
2023-02-17T21:21:50.245Z,16.12
2023-02-17T21:24:52.595Z,16.65
2023-02-17T21:27:55.516Z,15.23
2023-02-17T21:30:59.409Z,16.30
2023-02-17T21:34:01.268Z,15.82
2023-02-17T21:37:03.152Z,16.15
2023-02-17T21:40:07.278Z,16.15
2023-02-17T21:43:30.788Z,15.45
2023-02-17T21:46:34.353Z,15.95
2023-02-17T21:49:36.236Z,15.85
2023-02-17T21:52:38.270Z,14.43
2023-02-17T21:55:40.740Z,15.05
2023-02-17T21:58:47.509Z,14.80
2023-02-17T22:01:49.466Z,13.83
2023-02-17T22:04:56.469Z,14.52
2023-02-17T22:07:58.392Z,14.63
2023-02-17T22:11:00.154Z,14.75
2023-02-17T22:14:07.461Z,13.43
2023-02-17T22:17:09.120Z,13.65
2023-02-17T22:20:11.308Z,14.90
2023-02-17T22:23:12.970Z,14.30
2023-02-17T22:26:17.950Z,14.25
2023-02-17T22:29:19.611Z,13.68
2023-02-17T22:32:21.253Z,16.05
2023-02-17T22:35:23.734Z,14.23
2023-02-17T22:38:25.480Z,14.18
2023-02-17T22:41:27.214Z,14.68
2023-02-17T22:44:29.877Z,14.73
2023-02-17T22:47:31.579Z,14.77
2023-02-17T22:50:33.218Z,13.93
2023-02-17T22:53:36.153Z,15.65
2023-02-17T22:56:39.199Z,14.30
2023-02-17T22:59:40.833Z,14.07
2023-02-17T23:02:42.476Z,13.15
2023-02-17T23:05:45.455Z,14.55
2023-02-17T23:08:48.712Z,13.98
2023-02-17T23:11:50.489Z,14.18
2023-02-17T23:14:52.199Z,14.38
2023-02-17T23:17:56.624Z,14.02
2023-02-17T23:20:59.440Z,13.73
2023-02-17T23:24:01.260Z,14.30
2023-02-17T23:27:03.368Z,13.43
2023-02-17T23:30:07.728Z,14.15
2023-02-17T23:33:10.271Z,14.32
2023-02-17T23:36:11.976Z,13.23
2023-02-17T23:39:15.188Z,13.93
2023-02-17T23:42:16.878Z,14.30
2023-02-17T23:45:18.649Z,13.55
2023-02-17T23:48:20.262Z,14.18
2023-02-17T23:51:21.988Z,13.95
2023-02-17T23:54:25.033Z,14.32
2023-02-17T23:57:27.761Z,14.35
